sensor_id;sensor_type;location;lat;lon;timestamp;P1;durP1;ratioP1;P2;durP2;ratioP2
11052;SDS011;55230;42.602;23.470;2023-02-28T00:01:17;35.07;;;20.73;;
11052;SDS011;55230;42.602;23.470;2023-02-28T00:03:44;33.70;;;20.23;;
11052;SDS011;55230;42.602;23.470;2023-02-28T00:06:12;33.27;;;19.77;;
11052;SDS011;55230;42.602;23.470;2023-02-28T00:08:39;32.57;;;19.80;;
11052;SDS011;55230;42.602;23.470;2023-02-28T00:11:07;29.80;;;18.67;;
11052;SDS011;55230;42.602;23.470;2023-02-28T00:13:35;30.50;;;19.03;;
11052;SDS011;55230;42.602;23.470;2023-02-28T00:16:05;30.33;;;18.37;;
11052;SDS011;55230;42.602;23.470;2023-02-28T00:18:34;29.97;;;18.47;;
11052;SDS011;55230;42.602;23.470;2023-02-28T00:21:01;31.63;;;17.80;;
11052;SDS011;55230;42.602;23.470;2023-02-28T00:23:29;31.83;;;18.50;;
11052;SDS011;55230;42.602;23.470;2023-02-28T00:25:56;27.60;;;17.00;;
11052;SDS011;55230;42.602;23.470;2023-02-28T00:28:22;25.03;;;16.47;;
11052;SDS011;55230;42.602;23.470;2023-02-28T00:30:49;27.47;;;17.63;;
11052;SDS011;55230;42.602;23.470;2023-02-28T00:33:16;32.90;;;20.23;;
11052;SDS011;55230;42.602;23.470;2023-02-28T00:35:43;31.50;;;18.67;;
11052;SDS011;55230;42.602;23.470;2023-02-28T00:38:11;30.43;;;17.43;;
11052;SDS011;55230;42.602;23.470;2023-02-28T00:40:39;29.50;;;18.53;;
11052;SDS011;55230;42.602;23.470;2023-02-28T00:43:06;28.77;;;20.27;;
11052;SDS011;55230;42.602;23.470;2023-02-28T00:45:33;36.13;;;21.17;;
11052;SDS011;55230;42.602;23.470;2023-02-28T00:47:59;35.30;;;22.07;;
11052;SDS011;55230;42.602;23.470;2023-02-28T00:50:26;31.03;;;19.17;;
11052;SDS011;55230;42.602;23.470;2023-02-28T00:52:53;33.80;;;20.67;;
11052;SDS011;55230;42.602;23.470;2023-02-28T00:55:20;33.27;;;20.57;;
11052;SDS011;55230;42.602;23.470;2023-02-28T00:57:48;31.80;;;19.27;;
11052;SDS011;55230;42.602;23.470;2023-02-28T01:00:15;30.70;;;17.40;;
11052;SDS011;55230;42.602;23.470;2023-02-28T01:02:42;26.07;;;16.53;;
11052;SDS011;55230;42.602;23.470;2023-02-28T01:05:08;26.63;;;16.73;;
11052;SDS011;55230;42.602;23.470;2023-02-28T01:07:36;28.03;;;16.83;;
11052;SDS011;55230;42.602;23.470;2023-02-28T01:10:03;28.37;;;15.60;;
11052;SDS011;55230;42.602;23.470;2023-02-28T01:12:31;29.33;;;17.23;;
11052;SDS011;55230;42.602;23.470;2023-02-28T01:14:59;25.30;;;14.47;;
11052;SDS011;55230;42.602;23.470;2023-02-28T01:17:26;21.57;;;13.93;;
11052;SDS011;55230;42.602;23.470;2023-02-28T01:19:53;25.67;;;14.37;;
11052;SDS011;55230;42.602;23.470;2023-02-28T01:22:20;26.00;;;14.80;;
11052;SDS011;55230;42.602;23.470;2023-02-28T01:24:47;23.57;;;14.70;;
11052;SDS011;55230;42.602;23.470;2023-02-28T01:27:13;25.33;;;14.83;;
11052;SDS011;55230;42.602;23.470;2023-02-28T01:29:40;22.27;;;13.37;;
11052;SDS011;55230;42.602;23.470;2023-02-28T01:32:08;26.40;;;14.37;;
11052;SDS011;55230;42.602;23.470;2023-02-28T01:34:35;21.47;;;12.83;;
11052;SDS011;55230;42.602;23.470;2023-02-28T01:37:02;16.30;;;9.90;;
11052;SDS011;55230;42.602;23.470;2023-02-28T01:39:29;16.37;;;12.03;;
11052;SDS011;55230;42.602;23.470;2023-02-28T01:41:55;13.73;;;8.73;;
11052;SDS011;55230;42.602;23.470;2023-02-28T01:47:34;14.83;;;10.83;;
11052;SDS011;55230;42.602;23.470;2023-02-28T01:50:05;14.90;;;9.57;;
11052;SDS011;55230;42.602;23.470;2023-02-28T01:52:35;14.30;;;8.83;;
11052;SDS011;55230;42.602;23.470;2023-02-28T01:55:04;13.27;;;7.10;;
11052;SDS011;55230;42.602;23.470;2023-02-28T01:57:37;11.40;;;8.03;;
11052;SDS011;55230;42.602;23.470;2023-02-28T02:00:08;11.43;;;7.70;;
11052;SDS011;55230;42.602;23.470;2023-02-28T02:02:41;11.70;;;8.00;;
11052;SDS011;55230;42.602;23.470;2023-02-28T02:05:10;11.33;;;7.73;;
11052;SDS011;55230;42.602;23.470;2023-02-28T02:07:40;10.70;;;7.23;;
11052;SDS011;55230;42.602;23.470;2023-02-28T02:10:11;14.40;;;8.50;;
11052;SDS011;55230;42.602;23.470;2023-02-28T02:12:49;15.27;;;9.63;;
11052;SDS011;55230;42.602;23.470;2023-02-28T02:15:34;453.53;;;43.53;;
11052;SDS011;55230;42.602;23.470;2023-02-28T02:18:09;142.93;;;21.87;;
11052;SDS011;55230;42.602;23.470;2023-02-28T02:27:03;23.73;;;13.83;;
11052;SDS011;55230;42.602;23.470;2023-02-28T02:29:45;20.83;;;12.33;;
11052;SDS011;55230;42.602;23.470;2023-02-28T02:32:29;22.67;;;13.37;;
11052;SDS011;55230;42.602;23.470;2023-02-28T02:35:13;33.33;;;17.30;;
11052;SDS011;55230;42.602;23.470;2023-02-28T02:37:45;22.63;;;12.43;;
11052;SDS011;55230;42.602;23.470;2023-02-28T02:40:17;14.00;;;9.97;;
11052;SDS011;55230;42.602;23.470;2023-02-28T02:42:48;13.73;;;8.90;;
11052;SDS011;55230;42.602;23.470;2023-02-28T02:45:22;11.90;;;6.10;;
11052;SDS011;55230;42.602;23.470;2023-02-28T02:47:53;346.40;;;46.50;;
11052;SDS011;55230;42.602;23.470;2023-02-28T02:50:24;418.20;;;47.80;;
11052;SDS011;55230;42.602;23.470;2023-02-28T02:52:56;230.00;;;33.90;;
11052;SDS011;55230;42.602;23.470;2023-02-28T02:55:26;120.30;;;27.90;;
11052;SDS011;55230;42.602;23.470;2023-02-28T02:57:57;65.73;;;25.57;;
11052;SDS011;55230;42.602;23.470;2023-02-28T03:00:29;152.53;;;29.27;;
11052;SDS011;55230;42.602;23.470;2023-02-28T03:02:59;89.70;;;26.30;;
11052;SDS011;55230;42.602;23.470;2023-02-28T03:05:30;75.93;;;25.77;;
11052;SDS011;55230;42.602;23.470;2023-02-28T03:08:02;70.67;;;24.57;;
11052;SDS011;55230;42.602;23.470;2023-02-28T03:10:36;208.27;;;32.23;;
11052;SDS011;55230;42.602;23.470;2023-02-28T03:13:25;186.90;;;34.93;;
11052;SDS011;55230;42.602;23.470;2023-02-28T03:16:28;277.23;;;36.13;;
11052;SDS011;55230;42.602;23.470;2023-02-28T03:19:03;229.77;;;32.53;;
11052;SDS011;55230;42.602;23.470;2023-02-28T03:21:43;384.40;;;53.03;;
11052;SDS011;55230;42.602;23.470;2023-02-28T03:24:17;211.23;;;31.80;;
11052;SDS011;55230;42.602;23.470;2023-02-28T03:26:50;203.27;;;30.03;;
11052;SDS011;55230;42.602;23.470;2023-02-28T03:29:21;216.57;;;31.90;;
11052;SDS011;55230;42.602;23.470;2023-02-28T03:31:55;222.53;;;30.67;;
11052;SDS011;55230;42.602;23.470;2023-02-28T03:34:29;165.57;;;26.93;;
11052;SDS011;55230;42.602;23.470;2023-02-28T03:37:02;236.97;;;31.63;;
11052;SDS011;55230;42.602;23.470;2023-02-28T03:39:34;187.90;;;24.43;;
11052;SDS011;55230;42.602;23.470;2023-02-28T03:42:04;103.60;;;20.97;;
11052;SDS011;55230;42.602;23.470;2023-02-28T03:44:36;75.00;;;18.63;;
11052;SDS011;55230;42.602;23.470;2023-02-28T03:47:08;84.63;;;23.63;;
11052;SDS011;55230;42.602;23.470;2023-02-28T03:49:39;46.00;;;24.20;;
11052;SDS011;55230;42.602;23.470;2023-02-28T03:52:12;34.93;;;19.60;;
11052;SDS011;55230;42.602;23.470;2023-02-28T03:54:41;21.73;;;12.23;;
11052;SDS011;55230;42.602;23.470;2023-02-28T03:57:13;413.40;;;43.20;;
11052;SDS011;55230;42.602;23.470;2023-02-28T03:59:45;307.00;;;38.80;;
11052;SDS011;55230;42.602;23.470;2023-02-28T04:02:16;528.00;;;51.33;;
11052;SDS011;55230;42.602;23.470;2023-02-28T04:04:43;604.80;;;48.63;;
11052;SDS011;55230;42.602;23.470;2023-02-28T04:07:14;392.47;;;38.23;;
11052;SDS011;55230;42.602;23.470;2023-02-28T04:09:42;356.30;;;38.83;;
11052;SDS011;55230;42.602;23.470;2023-02-28T04:12:09;535.70;;;54.37;;
11052;SDS011;55230;42.602;23.470;2023-02-28T04:14:36;570.23;;;51.57;;
11052;SDS011;55230;42.602;23.470;2023-02-28T04:17:03;368.13;;;33.93;;
11052;SDS011;55230;42.602;23.470;2023-02-28T04:19:30;487.90;;;42.37;;
11052;SDS011;55230;42.602;23.470;2023-02-28T04:21:56;476.60;;;37.50;;
11052;SDS011;55230;42.602;23.470;2023-02-28T04:24:26;398.00;;;37.63;;
11052;SDS011;55230;42.602;23.470;2023-02-28T04:26:54;368.90;;;43.73;;
11052;SDS011;55230;42.602;23.470;2023-02-28T04:29:23;172.40;;;37.37;;
11052;SDS011;55230;42.602;23.470;2023-02-28T04:31:54;74.47;;;22.43;;
11052;SDS011;55230;42.602;23.470;2023-02-28T04:34:23;162.13;;;28.20;;
11052;SDS011;55230;42.602;23.470;2023-02-28T04:36:51;131.93;;;26.63;;
11052;SDS011;55230;42.602;23.470;2023-02-28T04:39:22;116.93;;;25.60;;
11052;SDS011;55230;42.602;23.470;2023-02-28T04:42:00;58.77;;;22.57;;
11052;SDS011;55230;42.602;23.470;2023-02-28T04:44:28;109.33;;;25.43;;
11052;SDS011;55230;42.602;23.470;2023-02-28T04:46:55;33.43;;;18.97;;
11052;SDS011;55230;42.602;23.470;2023-02-28T04:49:22;43.83;;;28.40;;
11052;SDS011;55230;42.602;23.470;2023-02-28T04:51:50;76.53;;;50.40;;
11052;SDS011;55230;42.602;23.470;2023-02-28T05:09:59;69.73;;;40.43;;
11052;SDS011;55230;42.602;23.470;2023-02-28T05:12:26;48.57;;;28.30;;
11052;SDS011;55230;42.602;23.470;2023-02-28T05:14:54;46.57;;;28.13;;
11052;SDS011;55230;42.602;23.470;2023-02-28T05:53:33;98.83;;;55.20;;
11052;SDS011;55230;42.602;23.470;2023-02-28T05:56:01;94.93;;;54.27;;
11052;SDS011;55230;42.602;23.470;2023-02-28T05:58:29;58.57;;;35.00;;
11052;SDS011;55230;42.602;23.470;2023-02-28T06:00:57;51.60;;;28.43;;
11052;SDS011;55230;42.602;23.470;2023-02-28T06:03:24;108.67;;;57.07;;
11052;SDS011;55230;42.602;23.470;2023-02-28T06:05:51;80.07;;;44.57;;
11052;SDS011;55230;42.602;23.470;2023-02-28T06:08:18;65.90;;;39.33;;
11052;SDS011;55230;42.602;23.470;2023-02-28T06:10:47;54.17;;;35.03;;
11052;SDS011;55230;42.602;23.470;2023-02-28T06:13:14;93.87;;;52.40;;
11052;SDS011;55230;42.602;23.470;2023-02-28T06:15:41;53.33;;;31.27;;
11052;SDS011;55230;42.602;23.470;2023-02-28T06:18:08;60.63;;;30.93;;
11052;SDS011;55230;42.602;23.470;2023-02-28T06:20:35;48.37;;;28.10;;
11052;SDS011;55230;42.602;23.470;2023-02-28T06:23:03;53.70;;;28.13;;
11052;SDS011;55230;42.602;23.470;2023-02-28T06:38:25;68.40;;;38.90;;
11052;SDS011;55230;42.602;23.470;2023-02-28T06:40:55;115.60;;;68.00;;
11052;SDS011;55230;42.602;23.470;2023-02-28T06:43:23;75.57;;;40.00;;
11052;SDS011;55230;42.602;23.470;2023-02-28T06:45:53;69.73;;;36.27;;
11052;SDS011;55230;42.602;23.470;2023-02-28T06:48:20;71.80;;;42.63;;
11052;SDS011;55230;42.602;23.470;2023-02-28T06:50:47;60.40;;;31.90;;
11052;SDS011;55230;42.602;23.470;2023-02-28T06:53:14;56.10;;;32.53;;
11052;SDS011;55230;42.602;23.470;2023-02-28T06:55:42;55.37;;;31.90;;
11052;SDS011;55230;42.602;23.470;2023-02-28T06:58:09;57.97;;;32.53;;
11052;SDS011;55230;42.602;23.470;2023-02-28T07:00:40;78.37;;;48.30;;
11052;SDS011;55230;42.602;23.470;2023-02-28T07:03:07;67.67;;;39.97;;
11052;SDS011;55230;42.602;23.470;2023-02-28T07:05:34;63.07;;;36.70;;
11052;SDS011;55230;42.602;23.470;2023-02-28T07:08:01;71.70;;;45.70;;
11052;SDS011;55230;42.602;23.470;2023-02-28T07:10:29;61.17;;;35.90;;
11052;SDS011;55230;42.602;23.470;2023-02-28T07:12:58;65.27;;;43.57;;
11052;SDS011;55230;42.602;23.470;2023-02-28T07:15:25;71.07;;;45.27;;
11052;SDS011;55230;42.602;23.470;2023-02-28T07:17:52;62.23;;;35.73;;
11052;SDS011;55230;42.602;23.470;2023-02-28T07:20:19;110.93;;;58.27;;
11052;SDS011;55230;42.602;23.470;2023-02-28T07:22:45;80.23;;;45.90;;
11052;SDS011;55230;42.602;23.470;2023-02-28T07:25:20;67.00;;;36.37;;
11052;SDS011;55230;42.602;23.470;2023-02-28T07:27:47;68.87;;;44.60;;
11052;SDS011;55230;42.602;23.470;2023-02-28T07:30:15;64.83;;;40.17;;
11052;SDS011;55230;42.602;23.470;2023-02-28T07:32:43;61.97;;;38.93;;
11052;SDS011;55230;42.602;23.470;2023-02-28T07:35:10;59.03;;;30.00;;
11052;SDS011;55230;42.602;23.470;2023-02-28T07:37:37;61.73;;;37.17;;
11052;SDS011;55230;42.602;23.470;2023-02-28T07:40:12;57.17;;;32.83;;
11052;SDS011;55230;42.602;23.470;2023-02-28T07:42:40;50.77;;;29.17;;
11052;SDS011;55230;42.602;23.470;2023-02-28T07:45:08;50.83;;;27.30;;
11052;SDS011;55230;42.602;23.470;2023-02-28T07:47:39;50.93;;;28.13;;
11052;SDS011;55230;42.602;23.470;2023-02-28T07:50:06;51.60;;;28.37;;
11052;SDS011;55230;42.602;23.470;2023-02-28T07:52:35;49.70;;;28.47;;
11052;SDS011;55230;42.602;23.470;2023-02-28T07:55:02;46.80;;;27.00;;
11052;SDS011;55230;42.602;23.470;2023-02-28T07:57:30;44.90;;;26.20;;
11052;SDS011;55230;42.602;23.470;2023-02-28T07:59:58;31.33;;;18.10;;
11052;SDS011;55230;42.602;23.470;2023-02-28T08:02:26;35.63;;;18.40;;
11052;SDS011;55230;42.602;23.470;2023-02-28T08:04:54;28.67;;;14.17;;
11052;SDS011;55230;42.602;23.470;2023-02-28T08:07:22;26.43;;;14.30;;
11052;SDS011;55230;42.602;23.470;2023-02-28T08:09:49;22.97;;;12.27;;
11052;SDS011;55230;42.602;23.470;2023-02-28T08:12:16;21.00;;;11.27;;
11052;SDS011;55230;42.602;23.470;2023-02-28T08:14:42;22.83;;;12.47;;
11052;SDS011;55230;42.602;23.470;2023-02-28T08:17:09;24.07;;;11.73;;
11052;SDS011;55230;42.602;23.470;2023-02-28T08:19:37;19.23;;;10.97;;
11052;SDS011;55230;42.602;23.470;2023-02-28T08:22:06;18.57;;;10.60;;
11052;SDS011;55230;42.602;23.470;2023-02-28T08:24:33;16.93;;;10.43;;
11052;SDS011;55230;42.602;23.470;2023-02-28T08:27:00;20.30;;;11.47;;
11052;SDS011;55230;42.602;23.470;2023-02-28T08:29:26;21.53;;;11.97;;
11052;SDS011;55230;42.602;23.470;2023-02-28T08:31:55;20.77;;;11.17;;
11052;SDS011;55230;42.602;23.470;2023-02-28T08:34:23;18.77;;;10.50;;
11052;SDS011;55230;42.602;23.470;2023-02-28T08:36:50;19.83;;;10.60;;
11052;SDS011;55230;42.602;23.470;2023-02-28T08:39:19;23.00;;;12.30;;
11052;SDS011;55230;42.602;23.470;2023-02-28T08:41:46;21.40;;;12.27;;
11052;SDS011;55230;42.602;23.470;2023-02-28T08:44:13;19.93;;;11.20;;
11052;SDS011;55230;42.602;23.470;2023-02-28T08:46:40;30.80;;;14.40;;
11052;SDS011;55230;42.602;23.470;2023-02-28T08:49:06;21.70;;;10.87;;
11052;SDS011;55230;42.602;23.470;2023-02-28T08:51:34;16.97;;;10.60;;
11052;SDS011;55230;42.602;23.470;2023-02-28T08:54:01;22.67;;;11.33;;
11052;SDS011;55230;42.602;23.470;2023-02-28T08:56:30;24.37;;;13.47;;
11052;SDS011;55230;42.602;23.470;2023-02-28T08:58:56;25.53;;;14.53;;
11052;SDS011;55230;42.602;23.470;2023-02-28T09:01:24;23.57;;;14.20;;
11052;SDS011;55230;42.602;23.470;2023-02-28T09:03:53;18.67;;;10.70;;
11052;SDS011;55230;42.602;23.470;2023-02-28T09:06:22;19.70;;;9.77;;
11052;SDS011;55230;42.602;23.470;2023-02-28T09:08:50;18.33;;;10.03;;
11052;SDS011;55230;42.602;23.470;2023-02-28T09:11:18;21.40;;;10.33;;
11052;SDS011;55230;42.602;23.470;2023-02-28T09:13:46;20.47;;;10.13;;
11052;SDS011;55230;42.602;23.470;2023-02-28T09:16:14;19.90;;;12.07;;
11052;SDS011;55230;42.602;23.470;2023-02-28T09:18:42;18.93;;;10.07;;
11052;SDS011;55230;42.602;23.470;2023-02-28T09:21:11;20.13;;;11.07;;
11052;SDS011;55230;42.602;23.470;2023-02-28T09:23:40;19.07;;;11.50;;
11052;SDS011;55230;42.602;23.470;2023-02-28T09:26:07;22.53;;;10.73;;
11052;SDS011;55230;42.602;23.470;2023-02-28T09:28:34;22.97;;;11.37;;
11052;SDS011;55230;42.602;23.470;2023-02-28T09:31:03;18.63;;;10.63;;
11052;SDS011;55230;42.602;23.470;2023-02-28T09:33:30;17.40;;;10.37;;
11052;SDS011;55230;42.602;23.470;2023-02-28T09:35:58;20.90;;;10.67;;
11052;SDS011;55230;42.602;23.470;2023-02-28T09:38:26;19.80;;;10.53;;
11052;SDS011;55230;42.602;23.470;2023-02-28T09:40:53;20.40;;;10.63;;
11052;SDS011;55230;42.602;23.470;2023-02-28T09:43:23;18.90;;;10.53;;
11052;SDS011;55230;42.602;23.470;2023-02-28T09:45:54;27.57;;;11.43;;
11052;SDS011;55230;42.602;23.470;2023-02-28T09:48:29;20.37;;;10.40;;
11052;SDS011;55230;42.602;23.470;2023-02-28T09:51:02;24.87;;;12.43;;
11052;SDS011;55230;42.602;23.470;2023-02-28T09:53:32;20.20;;;10.17;;
11052;SDS011;55230;42.602;23.470;2023-02-28T09:56:01;17.83;;;10.30;;
11052;SDS011;55230;42.602;23.470;2023-02-28T09:58:33;22.13;;;11.97;;
11052;SDS011;55230;42.602;23.470;2023-02-28T10:01:09;20.33;;;12.60;;
11052;SDS011;55230;42.602;23.470;2023-02-28T10:03:46;16.80;;;11.00;;
11052;SDS011;55230;42.602;23.470;2023-02-28T10:06:23;22.80;;;12.07;;
11052;SDS011;55230;42.602;23.470;2023-02-28T10:08:56;17.70;;;10.53;;
11052;SDS011;55230;42.602;23.470;2023-02-28T10:11:27;22.87;;;10.83;;
11052;SDS011;55230;42.602;23.470;2023-02-28T10:13:56;20.33;;;11.37;;
11052;SDS011;55230;42.602;23.470;2023-02-28T10:16:31;20.23;;;11.70;;
11052;SDS011;55230;42.602;23.470;2023-02-28T10:19:04;24.57;;;13.03;;
11052;SDS011;55230;42.602;23.470;2023-02-28T10:21:38;21.27;;;11.33;;
11052;SDS011;55230;42.602;23.470;2023-02-28T10:24:13;23.73;;;11.63;;
11052;SDS011;55230;42.602;23.470;2023-02-28T10:26:47;22.60;;;11.37;;
11052;SDS011;55230;42.602;23.470;2023-02-28T10:29:14;18.77;;;11.27;;
11052;SDS011;55230;42.602;23.470;2023-02-28T10:31:41;23.93;;;11.63;;
11052;SDS011;55230;42.602;23.470;2023-02-28T10:34:12;18.50;;;11.07;;
11052;SDS011;55230;42.602;23.470;2023-02-28T10:36:39;16.30;;;10.57;;
11052;SDS011;55230;42.602;23.470;2023-02-28T10:42:02;17.97;;;10.43;;
11052;SDS011;55230;42.602;23.470;2023-02-28T10:44:30;25.47;;;13.83;;
11052;SDS011;55230;42.602;23.470;2023-02-28T10:46:57;18.60;;;12.27;;
11052;SDS011;55230;42.602;23.470;2023-02-28T10:49:26;23.43;;;13.30;;
11052;SDS011;55230;42.602;23.470;2023-02-28T10:51:55;20.30;;;12.30;;
11052;SDS011;55230;42.602;23.470;2023-02-28T10:54:24;21.67;;;13.10;;
11052;SDS011;55230;42.602;23.470;2023-02-28T10:57:08;29.63;;;13.77;;
11052;SDS011;55230;42.602;23.470;2023-02-28T10:59:43;23.90;;;13.27;;
11052;SDS011;55230;42.602;23.470;2023-02-28T11:02:30;23.87;;;16.67;;
11052;SDS011;55230;42.602;23.470;2023-02-28T11:05:00;22.13;;;12.87;;
11052;SDS011;55230;42.602;23.470;2023-02-28T11:07:27;24.33;;;12.53;;
11052;SDS011;55230;42.602;23.470;2023-02-28T11:09:55;25.70;;;12.93;;
11052;SDS011;55230;42.602;23.470;2023-02-28T11:12:25;26.43;;;13.43;;
11052;SDS011;55230;42.602;23.470;2023-02-28T11:14:55;16.67;;;12.23;;
11052;SDS011;55230;42.602;23.470;2023-02-28T11:17:26;26.93;;;12.63;;
11052;SDS011;55230;42.602;23.470;2023-02-28T11:19:55;21.67;;;12.70;;
11052;SDS011;55230;42.602;23.470;2023-02-28T11:22:29;19.10;;;12.50;;
11052;SDS011;55230;42.602;23.470;2023-02-28T11:25:01;19.50;;;10.93;;
11052;SDS011;55230;42.602;23.470;2023-02-28T11:27:41;55.27;;;28.10;;
11052;SDS011;55230;42.602;23.470;2023-02-28T11:32:58;24.07;;;14.53;;
11052;SDS011;55230;42.602;23.470;2023-02-28T11:35:28;21.20;;;12.57;;
11052;SDS011;55230;42.602;23.470;2023-02-28T11:38:02;22.83;;;14.17;;
11052;SDS011;55230;42.602;23.470;2023-02-28T11:40:31;169.73;;;74.93;;
11052;SDS011;55230;42.602;23.470;2023-02-28T11:43:06;62.57;;;31.87;;
11052;SDS011;55230;42.602;23.470;2023-02-28T11:45:54;17.40;;;10.97;;
11052;SDS011;55230;42.602;23.470;2023-02-28T11:48:32;19.63;;;11.60;;
11052;SDS011;55230;42.602;23.470;2023-02-28T11:51:06;22.47;;;11.83;;
11052;SDS011;55230;42.602;23.470;2023-02-28T11:53:55;20.33;;;12.33;;
11052;SDS011;55230;42.602;23.470;2023-02-28T11:56:41;34.00;;;18.90;;
11052;SDS011;55230;42.602;23.470;2023-02-28T11:59:14;23.10;;;13.20;;
11052;SDS011;55230;42.602;23.470;2023-02-28T12:02:03;34.20;;;21.00;;
11052;SDS011;55230;42.602;23.470;2023-02-28T12:04:47;16.80;;;11.37;;
11052;SDS011;55230;42.602;23.470;2023-02-28T12:07:22;25.70;;;16.80;;
11052;SDS011;55230;42.602;23.470;2023-02-28T12:10:00;23.37;;;14.67;;
11052;SDS011;55230;42.602;23.470;2023-02-28T12:12:41;27.13;;;16.73;;
11052;SDS011;55230;42.602;23.470;2023-02-28T12:15:21;20.97;;;11.70;;
11052;SDS011;55230;42.602;23.470;2023-02-28T12:18:02;19.87;;;12.87;;
11052;SDS011;55230;42.602;23.470;2023-02-28T12:20:40;29.37;;;17.73;;
11052;SDS011;55230;42.602;23.470;2023-02-28T12:23:23;30.27;;;16.77;;
11052;SDS011;55230;42.602;23.470;2023-02-28T12:26:11;26.93;;;14.97;;
11052;SDS011;55230;42.602;23.470;2023-02-28T12:28:47;19.97;;;11.03;;
11052;SDS011;55230;42.602;23.470;2023-02-28T12:31:18;14.77;;;11.17;;
11052;SDS011;55230;42.602;23.470;2023-02-28T12:33:50;17.33;;;11.67;;
11052;SDS011;55230;42.602;23.470;2023-02-28T12:36:19;18.37;;;11.80;;
11052;SDS011;55230;42.602;23.470;2023-02-28T12:38:50;19.33;;;10.73;;
11052;SDS011;55230;42.602;23.470;2023-02-28T12:41:22;16.20;;;9.43;;
11052;SDS011;55230;42.602;23.470;2023-02-28T12:43:57;18.23;;;10.43;;
11052;SDS011;55230;42.602;23.470;2023-02-28T12:46:29;18.93;;;10.73;;
11052;SDS011;55230;42.602;23.470;2023-02-28T12:49:00;17.60;;;10.67;;
11052;SDS011;55230;42.602;23.470;2023-02-28T12:51:32;17.57;;;10.83;;
11052;SDS011;55230;42.602;23.470;2023-02-28T12:54:04;23.27;;;16.43;;
11052;SDS011;55230;42.602;23.470;2023-02-28T12:56:42;17.93;;;10.67;;
11052;SDS011;55230;42.602;23.470;2023-02-28T12:59:19;18.03;;;11.23;;
11052;SDS011;55230;42.602;23.470;2023-02-28T13:02:01;22.37;;;12.57;;
11052;SDS011;55230;42.602;23.470;2023-02-28T13:04:46;19.10;;;12.10;;
11052;SDS011;55230;42.602;23.470;2023-02-28T13:10:45;15.17;;;9.43;;
11052;SDS011;55230;42.602;23.470;2023-02-28T13:13:17;18.07;;;10.77;;
11052;SDS011;55230;42.602;23.470;2023-02-28T13:16:02;17.87;;;11.77;;
11052;SDS011;55230;42.602;23.470;2023-02-28T13:18:32;17.70;;;10.77;;
11052;SDS011;55230;42.602;23.470;2023-02-28T13:21:02;20.93;;;11.37;;
11052;SDS011;55230;42.602;23.470;2023-02-28T13:23:39;18.43;;;10.40;;
11052;SDS011;55230;42.602;23.470;2023-02-28T13:26:23;18.03;;;11.10;;
11052;SDS011;55230;42.602;23.470;2023-02-28T13:29:29;16.97;;;10.00;;
11052;SDS011;55230;42.602;23.470;2023-02-28T13:35:15;16.83;;;10.73;;
11052;SDS011;55230;42.602;23.470;2023-02-28T13:38:21;22.83;;;12.77;;
11052;SDS011;55230;42.602;23.470;2023-02-28T13:44:00;15.27;;;9.43;;
11052;SDS011;55230;42.602;23.470;2023-02-28T13:46:29;17.57;;;10.23;;
11052;SDS011;55230;42.602;23.470;2023-02-28T13:49:01;20.97;;;13.70;;
11052;SDS011;55230;42.602;23.470;2023-02-28T13:51:45;20.83;;;12.97;;
11052;SDS011;55230;42.602;23.470;2023-02-28T13:54:16;17.93;;;11.17;;
11052;SDS011;55230;42.602;23.470;2023-02-28T13:56:53;29.23;;;15.80;;
11052;SDS011;55230;42.602;23.470;2023-02-28T13:59:30;18.50;;;12.90;;
11052;SDS011;55230;42.602;23.470;2023-02-28T14:02:25;17.00;;;10.30;;
11052;SDS011;55230;42.602;23.470;2023-02-28T14:05:15;17.63;;;10.10;;
11052;SDS011;55230;42.602;23.470;2023-02-28T14:07:45;20.33;;;10.87;;
11052;SDS011;55230;42.602;23.470;2023-02-28T14:10:22;20.43;;;10.97;;
11052;SDS011;55230;42.602;23.470;2023-02-28T14:12:53;15.63;;;10.90;;
11052;SDS011;55230;42.602;23.470;2023-02-28T14:15:39;20.00;;;9.77;;
11052;SDS011;55230;42.602;23.470;2023-02-28T14:18:16;18.10;;;10.57;;
11052;SDS011;55230;42.602;23.470;2023-02-28T14:20:46;14.67;;;9.57;;
11052;SDS011;55230;42.602;23.470;2023-02-28T14:23:17;16.20;;;10.03;;
11052;SDS011;55230;42.602;23.470;2023-02-28T14:26:02;20.27;;;11.60;;
11052;SDS011;55230;42.602;23.470;2023-02-28T14:28:46;16.77;;;11.03;;
11052;SDS011;55230;42.602;23.470;2023-02-28T14:31:22;18.00;;;10.50;;
11052;SDS011;55230;42.602;23.470;2023-02-28T14:33:59;17.83;;;10.90;;
11052;SDS011;55230;42.602;23.470;2023-02-28T14:36:41;16.30;;;10.07;;
11052;SDS011;55230;42.602;23.470;2023-02-28T14:39:11;14.27;;;9.80;;
11052;SDS011;55230;42.602;23.470;2023-02-28T14:41:41;18.20;;;9.83;;
11052;SDS011;55230;42.602;23.470;2023-02-28T14:44:16;18.60;;;11.77;;
11052;SDS011;55230;42.602;23.470;2023-02-28T14:46:44;16.03;;;10.37;;
11052;SDS011;55230;42.602;23.470;2023-02-28T14:49:15;16.97;;;10.20;;
11052;SDS011;55230;42.602;23.470;2023-02-28T14:51:44;17.43;;;9.83;;
11052;SDS011;55230;42.602;23.470;2023-02-28T14:54:13;16.97;;;9.77;;
11052;SDS011;55230;42.602;23.470;2023-02-28T14:56:42;19.30;;;11.33;;
11052;SDS011;55230;42.602;23.470;2023-02-28T14:59:26;21.17;;;12.17;;
11052;SDS011;55230;42.602;23.470;2023-02-28T15:02:16;13.70;;;8.83;;
11052;SDS011;55230;42.602;23.470;2023-02-28T15:04:53;21.43;;;11.23;;
11052;SDS011;55230;42.602;23.470;2023-02-28T15:07:21;18.80;;;10.23;;
11052;SDS011;55230;42.602;23.470;2023-02-28T15:10:06;24.30;;;13.07;;
11052;SDS011;55230;42.602;23.470;2023-02-28T15:12:39;15.27;;;9.00;;
11052;SDS011;55230;42.602;23.470;2023-02-28T15:15:14;15.07;;;8.93;;
11052;SDS011;55230;42.602;23.470;2023-02-28T15:17:42;15.57;;;10.37;;
11052;SDS011;55230;42.602;23.470;2023-02-28T15:20:15;10.57;;;8.10;;
11052;SDS011;55230;42.602;23.470;2023-02-28T15:22:43;11.63;;;8.27;;
11052;SDS011;55230;42.602;23.470;2023-02-28T15:25:14;17.57;;;11.03;;
11052;SDS011;55230;42.602;23.470;2023-02-28T15:27:45;134.90;;;64.23;;
11052;SDS011;55230;42.602;23.470;2023-02-28T15:30:16;16.13;;;9.73;;
11052;SDS011;55230;42.602;23.470;2023-02-28T15:32:45;14.07;;;8.70;;
11052;SDS011;55230;42.602;23.470;2023-02-28T15:35:31;10.60;;;7.63;;
11052;SDS011;55230;42.602;23.470;2023-02-28T15:38:00;32.70;;;20.10;;
11052;SDS011;55230;42.602;23.470;2023-02-28T15:40:29;16.37;;;8.83;;
11052;SDS011;55230;42.602;23.470;2023-02-28T15:42:57;15.93;;;10.10;;
11052;SDS011;55230;42.602;23.470;2023-02-28T15:45:26;17.17;;;11.20;;
11052;SDS011;55230;42.602;23.470;2023-02-28T15:47:55;17.00;;;11.90;;
11052;SDS011;55230;42.602;23.470;2023-02-28T15:50:22;22.37;;;12.90;;
11052;SDS011;55230;42.602;23.470;2023-02-28T15:52:51;23.47;;;14.67;;
11052;SDS011;55230;42.602;23.470;2023-02-28T15:55:19;21.93;;;13.37;;
11052;SDS011;55230;42.602;23.470;2023-02-28T15:57:49;16.07;;;10.70;;
11052;SDS011;55230;42.602;23.470;2023-02-28T16:00:20;11.60;;;7.67;;
11052;SDS011;55230;42.602;23.470;2023-02-28T16:02:49;25.37;;;13.00;;